sensor_id;sensor_type;location;lat;lon;timestamp;P1;durP1;ratioP1;P2;durP2;ratioP2
22983;SDS011;11658;48.908;9.140;2023-04-24T03:02:50;1.27;;;0.93;;
22983;SDS011;11658;48.908;9.140;2023-04-24T03:05:15;1.33;;;0.77;;
22983;SDS011;11658;48.908;9.140;2023-04-24T03:07:41;1.20;;;0.80;;
22983;SDS011;11658;48.908;9.140;2023-04-24T03:10:07;1.63;;;0.90;;
22983;SDS011;11658;48.908;9.140;2023-04-24T03:12:33;1.10;;;0.90;;
22983;SDS011;11658;48.908;9.140;2023-04-24T03:14:58;1.07;;;0.67;;
22983;SDS011;11658;48.908;9.140;2023-04-24T03:17:24;1.73;;;0.90;;
22983;SDS011;11658;48.908;9.140;2023-04-24T03:19:50;0.80;;;0.77;;
22983;SDS011;11658;48.908;9.140;2023-04-24T03:22:15;0.73;;;0.70;;
22983;SDS011;11658;48.908;9.140;2023-04-24T03:24:41;2.83;;;0.90;;
22983;SDS011;11658;48.908;9.140;2023-04-24T03:27:06;1.10;;;0.70;;
22983;SDS011;11658;48.908;9.140;2023-04-24T03:29:32;0.97;;;0.87;;
22983;SDS011;11658;48.908;9.140;2023-04-24T03:31:57;0.70;;;0.70;;
22983;SDS011;11658;48.908;9.140;2023-04-24T03:34:23;1.87;;;0.80;;
22983;SDS011;11658;48.908;9.140;2023-04-24T03:36:49;2.03;;;0.80;;
22983;SDS011;11658;48.908;9.140;2023-04-24T03:39:14;1.50;;;0.70;;
22983;SDS011;11658;48.908;9.140;2023-04-24T03:41:40;1.70;;;0.80;;
22983;SDS011;11658;48.908;9.140;2023-04-24T03:44:06;0.80;;;0.80;;
22983;SDS011;11658;48.908;9.140;2023-04-24T03:46:31;1.83;;;1.00;;
22983;SDS011;11658;48.908;9.140;2023-04-24T03:48:57;0.80;;;0.80;;
22983;SDS011;11658;48.908;9.140;2023-04-24T03:51:22;1.00;;;0.93;;
22983;SDS011;11658;48.908;9.140;2023-04-24T03:53:48;0.93;;;0.90;;
22983;SDS011;11658;48.908;9.140;2023-04-24T03:56:14;1.07;;;0.73;;
22983;SDS011;11658;48.908;9.140;2023-04-24T03:58:40;2.80;;;0.83;;
22983;SDS011;11658;48.908;9.140;2023-04-24T04:01:05;1.60;;;0.80;;
22983;SDS011;11658;48.908;9.140;2023-04-24T04:03:31;1.50;;;0.90;;
22983;SDS011;11658;48.908;9.140;2023-04-24T04:05:57;0.70;;;0.70;;
22983;SDS011;11658;48.908;9.140;2023-04-24T04:08:22;1.57;;;0.70;;
22983;SDS011;11658;48.908;9.140;2023-04-24T04:10:48;1.17;;;0.60;;
22983;SDS011;11658;48.908;9.140;2023-04-24T04:13:14;2.03;;;0.90;;
22983;SDS011;11658;48.908;9.140;2023-04-24T04:15:39;1.00;;;0.60;;
22983;SDS011;11658;48.908;9.140;2023-04-24T04:18:05;1.13;;;0.90;;
22983;SDS011;11658;48.908;9.140;2023-04-24T04:20:31;3.87;;;1.43;;
22983;SDS011;11658;48.908;9.140;2023-04-24T04:22:57;4.67;;;1.27;;
22983;SDS011;11658;48.908;9.140;2023-04-24T04:25:22;2.13;;;1.47;;
22983;SDS011;11658;48.908;9.140;2023-04-24T04:27:48;1.53;;;1.00;;
22983;SDS011;11658;48.908;9.140;2023-04-24T04:30:13;1.53;;;0.90;;
22983;SDS011;11658;48.908;9.140;2023-04-24T04:32:39;2.10;;;0.93;;
22983;SDS011;11658;48.908;9.140;2023-04-24T04:35:05;2.10;;;1.03;;
22983;SDS011;11658;48.908;9.140;2023-04-24T04:37:34;0.80;;;0.80;;
22983;SDS011;11658;48.908;9.140;2023-04-24T04:40:00;0.93;;;0.90;;
22983;SDS011;11658;48.908;9.140;2023-04-24T04:42:26;3.73;;;1.00;;
22983;SDS011;11658;48.908;9.140;2023-04-24T04:44:53;1.33;;;1.07;;
22983;SDS011;11658;48.908;9.140;2023-04-24T04:47:20;1.20;;;1.10;;
22983;SDS011;11658;48.908;9.140;2023-04-24T04:49:48;1.23;;;1.10;;
22983;SDS011;11658;48.908;9.140;2023-04-24T04:52:13;3.40;;;1.10;;
22983;SDS011;11658;48.908;9.140;2023-04-24T04:54:39;1.10;;;1.00;;
22983;SDS011;11658;48.908;9.140;2023-04-24T04:57:05;1.83;;;1.00;;
22983;SDS011;11658;48.908;9.140;2023-04-24T04:59:31;2.50;;;1.00;;
22983;SDS011;11658;48.908;9.140;2023-04-24T05:01:56;2.60;;;1.20;;
22983;SDS011;11658;48.908;9.140;2023-04-24T05:04:22;1.80;;;1.10;;
22983;SDS011;11658;48.908;9.140;2023-04-24T05:06:48;1.83;;;1.27;;
22983;SDS011;11658;48.908;9.140;2023-04-24T05:09:13;3.23;;;1.27;;
22983;SDS011;11658;48.908;9.140;2023-04-24T05:11:39;3.37;;;1.47;;
22983;SDS011;11658;48.908;9.140;2023-04-24T05:14:04;2.37;;;1.20;;
22983;SDS011;11658;48.908;9.140;2023-04-24T05:16:30;1.37;;;1.27;;
22983;SDS011;11658;48.908;9.140;2023-04-24T05:18:56;1.53;;;1.43;;
22983;SDS011;11658;48.908;9.140;2023-04-24T05:21:21;2.00;;;1.20;;
22983;SDS011;11658;48.908;9.140;2023-04-24T05:23:47;2.30;;;1.40;;
22983;SDS011;11658;48.908;9.140;2023-04-24T05:26:13;1.20;;;1.10;;
22983;SDS011;11658;48.908;9.140;2023-04-24T05:28:38;1.60;;;1.50;;
22983;SDS011;11658;48.908;9.140;2023-04-24T05:31:05;1.53;;;1.30;;
22983;SDS011;11658;48.908;9.140;2023-04-24T05:33:31;3.40;;;1.50;;
22983;SDS011;11658;48.908;9.140;2023-04-24T05:35:57;1.47;;;1.37;;
22983;SDS011;11658;48.908;9.140;2023-04-24T05:38:22;2.63;;;1.43;;
22983;SDS011;11658;48.908;9.140;2023-04-24T05:40:48;2.27;;;1.50;;
22983;SDS011;11658;48.908;9.140;2023-04-24T05:43:13;1.30;;;1.20;;
22983;SDS011;11658;48.908;9.140;2023-04-24T05:45:39;1.83;;;1.60;;
22983;SDS011;11658;48.908;9.140;2023-04-24T05:48:05;1.60;;;1.50;;
22983;SDS011;11658;48.908;9.140;2023-04-24T05:50:31;2.23;;;1.70;;
22983;SDS011;11658;48.908;9.140;2023-04-24T05:52:56;2.23;;;1.70;;
22983;SDS011;11658;48.908;9.140;2023-04-24T05:55:23;3.97;;;1.80;;
22983;SDS011;11658;48.908;9.140;2023-04-24T05:57:50;1.87;;;1.50;;
22983;SDS011;11658;48.908;9.140;2023-04-24T06:00:16;2.43;;;1.80;;
22983;SDS011;11658;48.908;9.140;2023-04-24T06:02:42;1.80;;;1.70;;
22983;SDS011;11658;48.908;9.140;2023-04-24T06:05:08;2.17;;;1.60;;
22983;SDS011;11658;48.908;9.140;2023-04-24T06:07:34;1.90;;;1.70;;
22983;SDS011;11658;48.908;9.140;2023-04-24T06:10:00;2.57;;;2.10;;
22983;SDS011;11658;48.908;9.140;2023-04-24T06:12:26;2.83;;;2.00;;
22983;SDS011;11658;48.908;9.140;2023-04-24T06:14:52;3.43;;;1.70;;
22983;SDS011;11658;48.908;9.140;2023-04-24T06:17:17;2.07;;;1.60;;
22983;SDS011;11658;48.908;9.140;2023-04-24T06:19:43;2.17;;;1.70;;
22983;SDS011;11658;48.908;9.140;2023-04-24T06:22:09;1.97;;;1.77;;
22983;SDS011;11658;48.908;9.140;2023-04-24T06:24:35;4.47;;;2.80;;
22983;SDS011;11658;48.908;9.140;2023-04-24T06:27:01;1.30;;;1.20;;
22983;SDS011;11658;48.908;9.140;2023-04-24T06:29:27;2.50;;;1.30;;
22983;SDS011;11658;48.908;9.140;2023-04-24T06:31:52;1.73;;;1.40;;
22983;SDS011;11658;48.908;9.140;2023-04-24T06:34:18;1.57;;;1.43;;
22983;SDS011;11658;48.908;9.140;2023-04-24T06:36:43;1.40;;;1.30;;
22983;SDS011;11658;48.908;9.140;2023-04-24T06:39:09;2.10;;;1.53;;
22983;SDS011;11658;48.908;9.140;2023-04-24T06:41:35;1.83;;;1.47;;
22983;SDS011;11658;48.908;9.140;2023-04-24T06:44:00;1.50;;;1.40;;
22983;SDS011;11658;48.908;9.140;2023-04-24T06:46:26;3.97;;;1.70;;
22983;SDS011;11658;48.908;9.140;2023-04-24T06:48:53;2.37;;;1.50;;
22983;SDS011;11658;48.908;9.140;2023-04-24T06:51:25;1.80;;;1.70;;
22983;SDS011;11658;48.908;9.140;2023-04-24T06:53:53;2.00;;;1.80;;
22983;SDS011;11658;48.908;9.140;2023-04-24T06:56:20;1.50;;;1.40;;
22983;SDS011;11658;48.908;9.140;2023-04-24T06:58:47;1.50;;;1.40;;
22983;SDS011;11658;48.908;9.140;2023-04-24T07:01:13;1.60;;;1.50;;
22983;SDS011;11658;48.908;9.140;2023-04-24T07:03:38;1.60;;;1.37;;
22983;SDS011;11658;48.908;9.140;2023-04-24T07:06:04;1.50;;;1.40;;
22983;SDS011;11658;48.908;9.140;2023-04-24T07:08:30;1.90;;;1.50;;
22983;SDS011;11658;48.908;9.140;2023-04-24T07:10:56;1.73;;;1.20;;
22983;SDS011;11658;48.908;9.140;2023-04-24T07:13:22;3.07;;;1.40;;
22983;SDS011;11658;48.908;9.140;2023-04-24T07:15:48;2.20;;;1.60;;
22983;SDS011;11658;48.908;9.140;2023-04-24T07:18:19;1.60;;;1.50;;
22983;SDS011;11658;48.908;9.140;2023-04-24T07:20:45;3.23;;;1.50;;
22983;SDS011;11658;48.908;9.140;2023-04-24T07:23:10;1.67;;;1.43;;
22983;SDS011;11658;48.908;9.140;2023-04-24T07:25:36;1.60;;;1.40;;
22983;SDS011;11658;48.908;9.140;2023-04-24T07:28:03;2.17;;;1.43;;
22983;SDS011;11658;48.908;9.140;2023-04-24T07:30:29;1.60;;;1.10;;
22983;SDS011;11658;48.908;9.140;2023-04-24T07:32:57;1.13;;;1.10;;
22983;SDS011;11658;48.908;9.140;2023-04-24T07:35:23;1.33;;;1.20;;
22983;SDS011;11658;48.908;9.140;2023-04-24T07:37:50;1.93;;;1.10;;
22983;SDS011;11658;48.908;9.140;2023-04-24T07:40:17;2.13;;;1.20;;
22983;SDS011;11658;48.908;9.140;2023-04-24T07:45:09;2.03;;;1.50;;
22983;SDS011;11658;48.908;9.140;2023-04-24T07:47:34;1.63;;;1.40;;
22983;SDS011;11658;48.908;9.140;2023-04-24T07:50:02;2.60;;;1.30;;
22983;SDS011;11658;48.908;9.140;2023-04-24T07:52:28;2.13;;;1.20;;
22983;SDS011;11658;48.908;9.140;2023-04-24T07:54:54;1.73;;;1.23;;
22983;SDS011;11658;48.908;9.140;2023-04-24T07:57:23;1.73;;;1.23;;
22983;SDS011;11658;48.908;9.140;2023-04-24T07:59:51;1.57;;;1.30;;
22983;SDS011;11658;48.908;9.140;2023-04-24T08:02:17;2.60;;;1.50;;
22983;SDS011;11658;48.908;9.140;2023-04-24T08:07:08;2.67;;;1.83;;
22983;SDS011;11658;48.908;9.140;2023-04-24T08:09:34;2.47;;;1.50;;
22983;SDS011;11658;48.908;9.140;2023-04-24T08:11:59;1.77;;;1.13;;
22983;SDS011;11658;48.908;9.140;2023-04-24T08:14:26;1.73;;;1.20;;
22983;SDS011;11658;48.908;9.140;2023-04-24T08:16:53;1.80;;;1.20;;
22983;SDS011;11658;48.908;9.140;2023-04-24T08:19:20;1.27;;;1.17;;
22983;SDS011;11658;48.908;9.140;2023-04-24T08:21:46;1.30;;;1.20;;
22983;SDS011;11658;48.908;9.140;2023-04-24T08:24:12;1.80;;;1.07;;
22983;SDS011;11658;48.908;9.140;2023-04-24T08:26:37;1.40;;;1.30;;
22983;SDS011;11658;48.908;9.140;2023-04-24T08:29:03;2.73;;;1.37;;
22983;SDS011;11658;48.908;9.140;2023-04-24T08:31:29;3.80;;;1.20;;
22983;SDS011;11658;48.908;9.140;2023-04-24T08:33:55;2.75;;;1.30;;
22983;SDS011;11658;48.908;9.140;2023-04-24T08:36:20;2.33;;;1.10;;
22983;SDS011;11658;48.908;9.140;2023-04-24T08:38:46;1.43;;;1.20;;
22983;SDS011;11658;48.908;9.140;2023-04-24T08:41:12;3.47;;;1.00;;
22983;SDS011;11658;48.908;9.140;2023-04-24T08:43:40;1.93;;;1.00;;
22983;SDS011;11658;48.908;9.140;2023-04-24T08:46:06;3.80;;;1.03;;
22983;SDS011;11658;48.908;9.140;2023-04-24T08:48:32;1.93;;;1.17;;
22983;SDS011;11658;48.908;9.140;2023-04-24T08:50:58;3.10;;;1.10;;
22983;SDS011;11658;48.908;9.140;2023-04-24T08:53:24;2.17;;;1.07;;
22983;SDS011;11658;48.908;9.140;2023-04-24T08:55:51;1.83;;;0.80;;
22983;SDS011;11658;48.908;9.140;2023-04-24T08:58:19;2.40;;;1.07;;
22983;SDS011;11658;48.908;9.140;2023-04-24T09:00:44;1.00;;;0.90;;
22983;SDS011;11658;48.908;9.140;2023-04-24T09:03:15;2.50;;;0.80;;
22983;SDS011;11658;48.908;9.140;2023-04-24T09:05:42;1.87;;;1.00;;
22983;SDS011;11658;48.908;9.140;2023-04-24T09:08:15;1.03;;;0.93;;
22983;SDS011;11658;48.908;9.140;2023-04-24T09:10:43;0.87;;;0.87;;
22983;SDS011;11658;48.908;9.140;2023-04-24T09:13:09;3.47;;;1.07;;
22983;SDS011;11658;48.908;9.140;2023-04-24T09:15:36;1.87;;;1.17;;
22983;SDS011;11658;48.908;9.140;2023-04-24T09:18:02;2.60;;;1.30;;
22983;SDS011;11658;48.908;9.140;2023-04-24T09:20:27;1.30;;;1.00;;
22983;SDS011;11658;48.908;9.140;2023-04-24T09:22:54;0.80;;;0.80;;
22983;SDS011;11658;48.908;9.140;2023-04-24T09:25:21;2.13;;;0.70;;
22983;SDS011;11658;48.908;9.140;2023-04-24T09:27:47;1.00;;;0.70;;
22983;SDS011;11658;48.908;9.140;2023-04-24T09:30:12;2.27;;;0.90;;
22983;SDS011;11658;48.908;9.140;2023-04-24T09:32:39;2.30;;;1.00;;
22983;SDS011;11658;48.908;9.140;2023-04-24T09:37:34;0.90;;;0.70;;
22983;SDS011;11658;48.908;9.140;2023-04-24T09:40:10;0.97;;;0.90;;
22983;SDS011;11658;48.908;9.140;2023-04-24T09:42:37;1.40;;;1.00;;
22983;SDS011;11658;48.908;9.140;2023-04-24T09:45:03;1.40;;;0.97;;
22983;SDS011;11658;48.908;9.140;2023-04-24T09:47:35;2.60;;;0.97;;
22983;SDS011;11658;48.908;9.140;2023-04-24T09:50:09;2.03;;;0.80;;
22983;SDS011;11658;48.908;9.140;2023-04-24T09:52:35;1.77;;;0.90;;
22983;SDS011;11658;48.908;9.140;2023-04-24T09:55:10;1.33;;;0.80;;
22983;SDS011;11658;48.908;9.140;2023-04-24T09:57:46;0.70;;;0.70;;
22983;SDS011;11658;48.908;9.140;2023-04-24T10:00:25;2.47;;;1.00;;
22983;SDS011;11658;48.908;9.140;2023-04-24T10:03:01;1.07;;;0.90;;
22983;SDS011;11658;48.908;9.140;2023-04-24T10:08:05;1.67;;;1.17;;
22983;SDS011;11658;48.908;9.140;2023-04-24T10:10:33;1.20;;;1.10;;
22983;SDS011;11658;48.908;9.140;2023-04-24T10:13:01;2.37;;;1.10;;
22983;SDS011;11658;48.908;9.140;2023-04-24T10:15:28;1.13;;;0.80;;
22983;SDS011;11658;48.908;9.140;2023-04-24T10:17:54;1.07;;;1.00;;
22983;SDS011;11658;48.908;9.140;2023-04-24T10:20:21;2.40;;;1.10;;
22983;SDS011;11658;48.908;9.140;2023-04-24T10:22:49;1.00;;;1.00;;
22983;SDS011;11658;48.908;9.140;2023-04-24T10:25:22;1.40;;;0.80;;
22983;SDS011;11658;48.908;9.140;2023-04-24T10:27:51;1.13;;;1.03;;
22983;SDS011;11658;48.908;9.140;2023-04-24T10:30:18;1.63;;;0.80;;
22983;SDS011;11658;48.908;9.140;2023-04-24T10:32:47;1.03;;;1.00;;
22983;SDS011;11658;48.908;9.140;2023-04-24T10:35:13;1.73;;;1.00;;
22983;SDS011;11658;48.908;9.140;2023-04-24T10:37:44;2.87;;;0.93;;
22983;SDS011;11658;48.908;9.140;2023-04-24T10:40:16;1.40;;;1.10;;
22983;SDS011;11658;48.908;9.140;2023-04-24T10:42:51;2.07;;;1.30;;
22983;SDS011;11658;48.908;9.140;2023-04-24T10:45:21;2.03;;;1.07;;
22983;SDS011;11658;48.908;9.140;2023-04-24T10:47:51;1.57;;;1.00;;
22983;SDS011;11658;48.908;9.140;2023-04-24T10:50:17;1.80;;;1.20;;
22983;SDS011;11658;48.908;9.140;2023-04-24T10:52:49;2.07;;;1.30;;
22983;SDS011;11658;48.908;9.140;2023-04-24T10:55:16;1.67;;;1.20;;
22983;SDS011;11658;48.908;9.140;2023-04-24T10:58:05;1.67;;;1.20;;
22983;SDS011;11658;48.908;9.140;2023-04-24T11:00:30;1.97;;;1.20;;
22983;SDS011;11658;48.908;9.140;2023-04-24T11:02:56;2.33;;;1.30;;
22983;SDS011;11658;48.908;9.140;2023-04-24T11:05:22;3.40;;;1.00;;
22983;SDS011;11658;48.908;9.140;2023-04-24T11:08:38;1.33;;;1.00;;
22983;SDS011;11658;48.908;9.140;2023-04-24T11:11:13;1.23;;;1.00;;
22983;SDS011;11658;48.908;9.140;2023-04-24T11:16:26;1.43;;;1.03;;
22983;SDS011;11658;48.908;9.140;2023-04-24T11:21:28;3.47;;;1.10;;
22983;SDS011;11658;48.908;9.140;2023-04-24T11:26:50;1.83;;;1.30;;
22983;SDS011;11658;48.908;9.140;2023-04-24T11:29:17;1.20;;;1.10;;
22983;SDS011;11658;48.908;9.140;2023-04-24T11:31:45;3.03;;;1.50;;
22983;SDS011;11658;48.908;9.140;2023-04-24T11:34:16;1.40;;;1.30;;
22983;SDS011;11658;48.908;9.140;2023-04-24T11:36:43;1.60;;;1.20;;
22983;SDS011;11658;48.908;9.140;2023-04-24T11:39:13;2.17;;;1.30;;
22983;SDS011;11658;48.908;9.140;2023-04-24T11:41:39;2.60;;;1.27;;
22983;SDS011;11658;48.908;9.140;2023-04-24T11:44:06;1.20;;;1.10;;
22983;SDS011;11658;48.908;9.140;2023-04-24T11:46:32;1.20;;;1.10;;
22983;SDS011;11658;48.908;9.140;2023-04-24T11:48:58;1.20;;;1.10;;
22983;SDS011;11658;48.908;9.140;2023-04-24T11:51:25;2.33;;;1.10;;
22983;SDS011;11658;48.908;9.140;2023-04-24T11:53:55;1.37;;;1.27;;
22983;SDS011;11658;48.908;9.140;2023-04-24T11:56:22;1.20;;;1.03;;
22983;SDS011;11658;48.908;9.140;2023-04-24T11:58:48;1.53;;;1.40;;
22983;SDS011;11658;48.908;9.140;2023-04-24T12:01:14;1.27;;;1.17;;
22983;SDS011;11658;48.908;9.140;2023-04-24T12:03:40;2.10;;;1.40;;
22983;SDS011;11658;48.908;9.140;2023-04-24T12:06:09;2.00;;;1.33;;
22983;SDS011;11658;48.908;9.140;2023-04-24T12:08:36;3.13;;;1.33;;
22983;SDS011;11658;48.908;9.140;2023-04-24T12:11:03;3.37;;;2.20;;
22983;SDS011;11658;48.908;9.140;2023-04-24T12:13:32;2.07;;;1.50;;
22983;SDS011;11658;48.908;9.140;2023-04-24T12:15:58;1.60;;;1.47;;
22983;SDS011;11658;48.908;9.140;2023-04-24T12:18:24;2.63;;;1.50;;
22983;SDS011;11658;48.908;9.140;2023-04-24T12:20:50;2.27;;;1.50;;
22983;SDS011;11658;48.908;9.140;2023-04-24T12:23:16;2.07;;;1.50;;
22983;SDS011;11658;48.908;9.140;2023-04-24T12:25:59;1.40;;;1.30;;
22983;SDS011;11658;48.908;9.140;2023-04-24T12:28:34;1.63;;;1.10;;
22983;SDS011;11658;48.908;9.140;2023-04-24T12:31:01;1.37;;;1.27;;
22983;SDS011;11658;48.908;9.140;2023-04-24T12:33:27;1.90;;;1.40;;
22983;SDS011;11658;48.908;9.140;2023-04-24T12:35:52;1.87;;;1.40;;
22983;SDS011;11658;48.908;9.140;2023-04-24T12:38:21;1.83;;;1.37;;
22983;SDS011;11658;48.908;9.140;2023-04-24T12:41:00;2.67;;;1.27;;
22983;SDS011;11658;48.908;9.140;2023-04-24T12:43:30;1.57;;;1.37;;
22983;SDS011;11658;48.908;9.140;2023-04-24T12:45:55;2.17;;;1.73;;
22983;SDS011;11658;48.908;9.140;2023-04-24T12:48:22;2.30;;;1.50;;
22983;SDS011;11658;48.908;9.140;2023-04-24T12:50:48;3.87;;;1.60;;
22983;SDS011;11658;48.908;9.140;2023-04-24T12:53:13;2.40;;;1.70;;
22983;SDS011;11658;48.908;9.140;2023-04-24T12:55:40;1.30;;;1.20;;
22983;SDS011;11658;48.908;9.140;2023-04-24T12:58:06;2.47;;;1.60;;
22983;SDS011;11658;48.908;9.140;2023-04-24T13:00:32;1.60;;;1.23;;
22983;SDS011;11658;48.908;9.140;2023-04-24T13:02:57;2.30;;;1.30;;
22983;SDS011;11658;48.908;9.140;2023-04-24T13:05:23;0.90;;;0.90;;
22983;SDS011;11658;48.908;9.140;2023-04-24T13:07:49;1.83;;;1.10;;
22983;SDS011;11658;48.908;9.140;2023-04-24T13:10:14;1.37;;;1.13;;
22983;SDS011;11658;48.908;9.140;2023-04-24T13:12:40;1.33;;;1.20;;
22983;SDS011;11658;48.908;9.140;2023-04-24T13:15:06;2.10;;;1.37;;
22983;SDS011;11658;48.908;9.140;2023-04-24T13:17:32;1.60;;;1.50;;
22983;SDS011;11658;48.908;9.140;2023-04-24T13:19:58;2.13;;;1.40;;
22983;SDS011;11658;48.908;9.140;2023-04-24T13:22:23;4.30;;;1.30;;
22983;SDS011;11658;48.908;9.140;2023-04-24T13:24:49;1.60;;;1.50;;
22983;SDS011;11658;48.908;9.140;2023-04-24T13:27:16;2.43;;;1.70;;
22983;SDS011;11658;48.908;9.140;2023-04-24T13:29:42;2.67;;;1.53;;
22983;SDS011;11658;48.908;9.140;2023-04-24T13:32:08;2.50;;;1.50;;
22983;SDS011;11658;48.908;9.140;2023-04-24T13:34:33;2.13;;;1.60;;
22983;SDS011;11658;48.908;9.140;2023-04-24T13:37:00;1.70;;;1.60;;
22983;SDS011;11658;48.908;9.140;2023-04-24T13:39:26;2.37;;;1.70;;
22983;SDS011;11658;48.908;9.140;2023-04-24T13:41:52;5.83;;;2.40;;
22983;SDS011;11658;48.908;9.140;2023-04-24T13:44:18;4.50;;;1.80;;
22983;SDS011;11658;48.908;9.140;2023-04-24T13:46:45;2.70;;;1.70;;
22983;SDS011;11658;48.908;9.140;2023-04-24T13:49:13;5.10;;;1.73;;
22983;SDS011;11658;48.908;9.140;2023-04-24T13:51:39;1.60;;;1.50;;
22983;SDS011;11658;48.908;9.140;2023-04-24T13:54:06;2.20;;;1.70;;
22983;SDS011;11658;48.908;9.140;2023-04-24T13:56:31;3.67;;;1.60;;
22983;SDS011;11658;48.908;9.140;2023-04-24T13:58:57;3.63;;;1.50;;
22983;SDS011;11658;48.908;9.140;2023-04-24T14:01:23;2.10;;;1.50;;
22983;SDS011;11658;48.908;9.140;2023-04-24T14:03:52;1.70;;;1.50;;
22983;SDS011;11658;48.908;9.140;2023-04-24T14:06:19;2.73;;;1.40;;
22983;SDS011;11658;48.908;9.140;2023-04-24T14:08:45;1.70;;;1.60;;
22983;SDS011;11658;48.908;9.140;2023-04-24T14:11:12;2.00;;;1.70;;
22983;SDS011;11658;48.908;9.140;2023-04-24T14:13:39;1.50;;;1.40;;
22983;SDS011;11658;48.908;9.140;2023-04-24T14:16:08;1.50;;;1.40;;
22983;SDS011;11658;48.908;9.140;2023-04-24T14:18:35;2.80;;;1.60;;
22983;SDS011;11658;48.908;9.140;2023-04-24T14:21:01;2.47;;;1.40;;
22983;SDS011;11658;48.908;9.140;2023-04-24T14:23:27;1.77;;;1.50;;
22983;SDS011;11658;48.908;9.140;2023-04-24T14:25:53;2.33;;;1.50;;
22983;SDS011;11658;48.908;9.140;2023-04-24T14:28:19;1.80;;;1.50;;
22983;SDS011;11658;48.908;9.140;2023-04-24T14:30:49;4.47;;;1.40;;
22983;SDS011;11658;48.908;9.140;2023-04-24T14:33:15;2.80;;;1.40;;
22983;SDS011;11658;48.908;9.140;2023-04-24T14:35:41;1.60;;;1.50;;
22983;SDS011;11658;48.908;9.140;2023-04-24T14:38:07;4.20;;;1.50;;
22983;SDS011;11658;48.908;9.140;2023-04-24T14:40:33;1.60;;;1.30;;
22983;SDS011;11658;48.908;9.140;2023-04-24T14:42:59;1.90;;;1.50;;
22983;SDS011;11658;48.908;9.140;2023-04-24T14:45:25;3.10;;;1.67;;
22983;SDS011;11658;48.908;9.140;2023-04-24T14:47:52;1.50;;;1.20;;
22983;SDS011;11658;48.908;9.140;2023-04-24T14:50:18;1.30;;;1.20;;
22983;SDS011;11658;48.908;9.140;2023-04-24T14:52:44;1.50;;;1.20;;
22983;SDS011;11658;48.908;9.140;2023-04-24T14:55:09;1.87;;;1.40;;
22983;SDS011;11658;48.908;9.140;2023-04-24T14:57:35;1.67;;;1.20;;
22983;SDS011;11658;48.908;9.140;2023-04-24T15:00:01;1.60;;;1.23;;
22983;SDS011;11658;48.908;9.140;2023-04-24T15:02:31;1.30;;;1.07;;
22983;SDS011;11658;48.908;9.140;2023-04-24T15:04:57;2.70;;;1.30;;
22983;SDS011;11658;48.908;9.140;2023-04-24T15:07:23;1.43;;;1.10;;
22983;SDS011;11658;48.908;9.140;2023-04-24T15:09:49;1.20;;;0.93;;
22983;SDS011;11658;48.908;9.140;2023-04-24T15:12:14;1.30;;;1.20;;
22983;SDS011;11658;48.908;9.140;2023-04-24T15:14:40;1.40;;;1.30;;
22983;SDS011;11658;48.908;9.140;2023-04-24T15:17:06;1.90;;;1.27;;
22983;SDS011;11658;48.908;9.140;2023-04-24T15:19:31;2.03;;;1.50;;
22983;SDS011;11658;48.908;9.140;2023-04-24T15:21:57;1.50;;;1.40;;
22983;SDS011;11658;48.908;9.140;2023-04-24T15:24:22;1.70;;;1.50;;
22983;SDS011;11658;48.908;9.140;2023-04-24T15:26:48;1.40;;;1.30;;
22983;SDS011;11658;48.908;9.140;2023-04-24T15:29:14;1.53;;;1.10;;
22983;SDS011;11658;48.908;9.140;2023-04-24T15:31:39;1.43;;;1.33;;
22983;SDS011;11658;48.908;9.140;2023-04-24T15:34:05;1.47;;;1.23;;
22983;SDS011;11658;48.908;9.140;2023-04-24T15:36:31;1.37;;;1.00;;
22983;SDS011;11658;48.908;9.140;2023-04-24T15:38:57;1.30;;;1.20;;
22983;SDS011;11658;48.908;9.140;2023-04-24T15:41:23;1.27;;;1.17;;
22983;SDS011;11658;48.908;9.140;2023-04-24T15:43:48;1.30;;;1.07;;
22983;SDS011;11658;48.908;9.140;2023-04-24T15:46:14;1.70;;;1.20;;
22983;SDS011;11658;48.908;9.140;2023-04-24T15:48:41;1.30;;;1.20;;
22983;SDS011;11658;48.908;9.140;2023-04-24T15:51:07;1.00;;;1.00;;
22983;SDS011;11658;48.908;9.140;2023-04-24T15:53:32;1.27;;;1.17;;
22983;SDS011;11658;48.908;9.140;2023-04-24T15:55:58;1.20;;;1.10;;
22983;SDS011;11658;48.908;9.140;2023-04-24T15:58:24;2.70;;;1.23;;
22983;SDS011;11658;48.908;9.140;2023-04-24T16:00:49;2.00;;;1.40;;
22983;SDS011;11658;48.908;9.140;2023-04-24T16:03:15;1.83;;;1.27;;
22983;SDS011;11658;48.908;9.140;2023-04-24T16:05:41;1.77;;;1.40;;
22983;SDS011;11658;48.908;9.140;2023-04-24T16:08:06;1.17;;;1.10;;
22983;SDS011;11658;48.908;9.140;2023-04-24T16:10:32;1.03;;;1.00;;
22983;SDS011;11658;48.908;9.140;2023-04-24T16:12:58;2.10;;;1.33;;
22983;SDS011;11658;48.908;9.140;2023-04-24T16:15:26;3.47;;;1.17;;
22983;SDS011;11658;48.908;9.140;2023-04-24T16:17:52;3.20;;;1.20;;
22983;SDS011;11658;48.908;9.140;2023-04-24T16:20:17;1.53;;;1.10;;
22983;SDS011;11658;48.908;9.140;2023-04-24T16:22:43;1.47;;;1.03;;
22983;SDS011;11658;48.908;9.140;2023-04-24T16:25:09;1.10;;;1.00;;
22983;SDS011;11658;48.908;9.140;2023-04-24T16:27:35;1.43;;;1.10;;
22983;SDS011;11658;48.908;9.140;2023-04-24T16:30:01;1.13;;;1.00;;
22983;SDS011;11658;48.908;9.140;2023-04-24T16:32:28;1.73;;;1.20;;
22983;SDS011;11658;48.908;9.140;2023-04-24T16:34:53;3.37;;;1.37;;
22983;SDS011;11658;48.908;9.140;2023-04-24T16:37:19;1.30;;;1.20;;
22983;SDS011;11658;48.908;9.140;2023-04-24T16:39:45;1.60;;;1.23;;
22983;SDS011;11658;48.908;9.140;2023-04-24T16:42:11;1.23;;;1.00;;
22983;SDS011;11658;48.908;9.140;2023-04-24T16:44:38;1.60;;;1.40;;
22983;SDS011;11658;48.908;9.140;2023-04-24T16:47:07;2.80;;;1.30;;
22983;SDS011;11658;48.908;9.140;2023-04-24T16:49:33;2.77;;;1.50;;
22983;SDS011;11658;48.908;9.140;2023-04-24T16:51:59;1.40;;;1.20;;
22983;SDS011;11658;48.908;9.140;2023-04-24T16:54:25;1.67;;;1.40;;
22983;SDS011;11658;48.908;9.140;2023-04-24T16:56:51;1.50;;;1.20;;
22983;SDS011;11658;48.908;9.140;2023-04-24T16:59:17;2.27;;;1.40;;
22983;SDS011;11658;48.908;9.140;2023-04-24T17:01:43;1.50;;;1.30;;
22983;SDS011;11658;48.908;9.140;2023-04-24T17:04:08;1.60;;;1.30;;
22983;SDS011;11658;48.908;9.140;2023-04-24T17:06:34;1.60;;;1.40;;
22983;SDS011;11658;48.908;9.140;2023-04-24T17:08:59;1.63;;;1.50;;
22983;SDS011;11658;48.908;9.140;2023-04-24T17:11:25;2.07;;;1.70;;
22983;SDS011;11658;48.908;9.140;2023-04-24T17:13:51;1.83;;;1.60;;
22983;SDS011;11658;48.908;9.140;2023-04-24T17:16:17;1.57;;;1.30;;
22983;SDS011;11658;48.908;9.140;2023-04-24T17:18:42;2.00;;;1.40;;
22983;SDS011;11658;48.908;9.140;2023-04-24T17:21:08;2.60;;;1.20;;
22983;SDS011;11658;48.908;9.140;2023-04-24T17:23:34;1.20;;;1.10;;
22983;SDS011;11658;48.908;9.140;2023-04-24T17:25:59;1.40;;;1.10;;
22983;SDS011;11658;48.908;9.140;2023-04-24T17:28:29;1.53;;;1.20;;
22983;SDS011;11658;48.908;9.140;2023-04-24T17:30:56;1.33;;;1.23;;
22983;SDS011;11658;48.908;9.140;2023-04-24T17:33:25;1.57;;;1.20;;
22983;SDS011;11658;48.908;9.140;2023-04-24T17:35:51;1.20;;;1.10;;
22983;SDS011;11658;48.908;9.140;2023-04-24T17:38:17;1.47;;;1.13;;
22983;SDS011;11658;48.908;9.140;2023-04-24T17:40:43;1.83;;;1.17;;
22983;SDS011;11658;48.908;9.140;2023-04-24T17:43:12;1.67;;;1.20;;
22983;SDS011;11658;48.908;9.140;2023-04-24T17:45:43;0.80;;;0.80;;
22983;SDS011;11658;48.908;9.140;2023-04-24T17:48:09;1.00;;;1.00;;
22983;SDS011;11658;48.908;9.140;2023-04-24T17:50:35;2.10;;;1.03;;
22983;SDS011;11658;48.908;9.140;2023-04-24T17:53:01;1.30;;;1.20;;
22983;SDS011;11658;48.908;9.140;2023-04-24T17:55:27;2.20;;;1.30;;
22983;SDS011;11658;48.908;9.140;2023-04-24T17:57:53;1.30;;;1.20;;
22983;SDS011;11658;48.908;9.140;2023-04-24T18:00:18;2.00;;;1.40;;
22983;SDS011;11658;48.908;9.140;2023-04-24T18:02:44;1.80;;;1.30;;
22983;SDS011;11658;48.908;9.140;2023-04-24T18:05:10;1.37;;;1.13;;